sensor_id;sensor_type;location;lat;lon;timestamp;temperature;humidity
18361;SHT31;9308;48.550;9.108;2022-07-29T00:00:09;20.09;81.97
18361;SHT31;9308;48.550;9.108;2022-07-29T00:02:35;20.02;81.82
18361;SHT31;9308;48.550;9.108;2022-07-29T00:05:01;19.95;81.67
18361;SHT31;9308;48.550;9.108;2022-07-29T00:07:27;19.90;82.03
18361;SHT31;9308;48.550;9.108;2022-07-29T00:09:52;19.96;81.74
18361;SHT31;9308;48.550;9.108;2022-07-29T00:12:19;20.02;81.42
18361;SHT31;9308;48.550;9.108;2022-07-29T00:14:45;19.92;81.53
18361;SHT31;9308;48.550;9.108;2022-07-29T00:17:10;19.90;81.94
18361;SHT31;9308;48.550;9.108;2022-07-29T00:19:36;19.74;82.09
18361;SHT31;9308;48.550;9.108;2022-07-29T00:22:01;19.65;81.90
18361;SHT31;9308;48.550;9.108;2022-07-29T00:24:27;19.59;82.23
18361;SHT31;9308;48.550;9.108;2022-07-29T00:26:52;19.62;82.16
18361;SHT31;9308;48.550;9.108;2022-07-29T00:29:18;19.59;82.10
18361;SHT31;9308;48.550;9.108;2022-07-29T00:31:43;19.69;81.30
18361;SHT31;9308;48.550;9.108;2022-07-29T00:34:09;19.62;82.09
18361;SHT31;9308;48.550;9.108;2022-07-29T00:36:54;19.54;82.31
18361;SHT31;9308;48.550;9.108;2022-07-29T00:39:20;19.43;82.25
18361;SHT31;9308;48.550;9.108;2022-07-29T00:41:45;19.47;82.50
18361;SHT31;9308;48.550;9.108;2022-07-29T00:44:11;19.47;82.22
18361;SHT31;9308;48.550;9.108;2022-07-29T00:46:36;19.34;82.06
18361;SHT31;9308;48.550;9.108;2022-07-29T00:49:02;19.26;82.41
18361;SHT31;9308;48.550;9.108;2022-07-29T00:51:27;19.26;82.56
18361;SHT31;9308;48.550;9.108;2022-07-29T00:53:53;19.22;82.47
18361;SHT31;9308;48.550;9.108;2022-07-29T00:56:19;19.20;82.11
18361;SHT31;9308;48.550;9.108;2022-07-29T00:58:46;19.20;82.07
18361;SHT31;9308;48.550;9.108;2022-07-29T01:01:13;19.31;81.64
18361;SHT31;9308;48.550;9.108;2022-07-29T01:03:38;19.23;81.81
18361;SHT31;9308;48.550;9.108;2022-07-29T01:06:04;19.20;81.56
18361;SHT31;9308;48.550;9.108;2022-07-29T01:08:31;19.16;81.52
18361;SHT31;9308;48.550;9.108;2022-07-29T01:10:57;19.14;81.69
18361;SHT31;9308;48.550;9.108;2022-07-29T01:13:22;19.11;81.90
18361;SHT31;9308;48.550;9.108;2022-07-29T01:15:54;19.09;81.70
18361;SHT31;9308;48.550;9.108;2022-07-29T01:18:30;18.89;81.86
18361;SHT31;9308;48.550;9.108;2022-07-29T01:24:11;18.85;81.88
18361;SHT31;9308;48.550;9.108;2022-07-29T01:26:49;18.92;81.77
18361;SHT31;9308;48.550;9.108;2022-07-29T01:29:25;18.89;81.81
18361;SHT31;9308;48.550;9.108;2022-07-29T01:31:56;18.72;81.65
18361;SHT31;9308;48.550;9.108;2022-07-29T01:34:27;18.69;81.97
18361;SHT31;9308;48.550;9.108;2022-07-29T01:37:06;18.78;81.70
18361;SHT31;9308;48.550;9.108;2022-07-29T01:39:35;18.62;82.52
18361;SHT31;9308;48.550;9.108;2022-07-29T01:42:15;18.68;82.09
18361;SHT31;9308;48.550;9.108;2022-07-29T01:44:57;18.79;81.63
18361;SHT31;9308;48.550;9.108;2022-07-29T01:47:28;18.65;81.86
18361;SHT31;9308;48.550;9.108;2022-07-29T01:49:56;18.54;82.20
18361;SHT31;9308;48.550;9.108;2022-07-29T01:52:28;18.54;81.92
18361;SHT31;9308;48.550;9.108;2022-07-29T01:54:58;18.57;81.65
18361;SHT31;9308;48.550;9.108;2022-07-29T01:57:29;18.44;81.98
18361;SHT31;9308;48.550;9.108;2022-07-29T01:59:57;18.35;82.11
18361;SHT31;9308;48.550;9.108;2022-07-29T02:02:24;18.38;82.08
18361;SHT31;9308;48.550;9.108;2022-07-29T02:04:52;18.57;81.43
18361;SHT31;9308;48.550;9.108;2022-07-29T02:07:20;18.44;81.45
18361;SHT31;9308;48.550;9.108;2022-07-29T02:09:49;18.45;81.93
18361;SHT31;9308;48.550;9.108;2022-07-29T02:12:17;18.41;81.86
18361;SHT31;9308;48.550;9.108;2022-07-29T02:14:53;18.25;82.27
18361;SHT31;9308;48.550;9.108;2022-07-29T02:17:28;18.34;82.18
18361;SHT31;9308;48.550;9.108;2022-07-29T02:19:59;18.31;82.19
18361;SHT31;9308;48.550;9.108;2022-07-29T02:22:29;18.38;82.11
18361;SHT31;9308;48.550;9.108;2022-07-29T02:24:55;18.40;81.87
18361;SHT31;9308;48.550;9.108;2022-07-29T02:27:22;18.35;82.29
18361;SHT31;9308;48.550;9.108;2022-07-29T02:29:49;18.37;81.73
18361;SHT31;9308;48.550;9.108;2022-07-29T02:32:16;18.27;81.99
18361;SHT31;9308;48.550;9.108;2022-07-29T02:34:43;18.28;81.95
18361;SHT31;9308;48.550;9.108;2022-07-29T02:37:11;18.25;82.08
18361;SHT31;9308;48.550;9.108;2022-07-29T02:39:39;18.17;82.24
18361;SHT31;9308;48.550;9.108;2022-07-29T02:42:10;18.20;81.73
18361;SHT31;9308;48.550;9.108;2022-07-29T02:44:36;18.20;82.48
18361;SHT31;9308;48.550;9.108;2022-07-29T02:47:10;18.21;81.87
18361;SHT31;9308;48.550;9.108;2022-07-29T02:50:05;18.16;82.16
18361;SHT31;9308;48.550;9.108;2022-07-29T02:52:44;18.20;81.97
18361;SHT31;9308;48.550;9.108;2022-07-29T02:55:26;18.05;82.58
18361;SHT31;9308;48.550;9.108;2022-07-29T02:58:01;18.13;81.92
18361;SHT31;9308;48.550;9.108;2022-07-29T03:00:29;18.12;81.22
18361;SHT31;9308;48.550;9.108;2022-07-29T03:02:58;17.99;81.61
18361;SHT31;9308;48.550;9.108;2022-07-29T03:05:25;17.97;82.18
18361;SHT31;9308;48.550;9.108;2022-07-29T03:07:57;17.85;82.52
18361;SHT31;9308;48.550;9.108;2022-07-29T03:10:25;17.93;81.86
18361;SHT31;9308;48.550;9.108;2022-07-29T03:12:51;17.99;82.08
18361;SHT31;9308;48.550;9.108;2022-07-29T03:15:18;17.90;82.01
18361;SHT31;9308;48.550;9.108;2022-07-29T03:17:44;17.92;81.68
18361;SHT31;9308;48.550;9.108;2022-07-29T03:20:10;17.81;82.29
18361;SHT31;9308;48.550;9.108;2022-07-29T03:22:41;17.92;81.87
18361;SHT31;9308;48.550;9.108;2022-07-29T03:25:17;17.97;81.06
18361;SHT31;9308;48.550;9.108;2022-07-29T03:27:44;17.83;81.90
18361;SHT31;9308;48.550;9.108;2022-07-29T03:30:11;17.85;81.64
18361;SHT31;9308;48.550;9.108;2022-07-29T03:32:37;17.69;82.32
18361;SHT31;9308;48.550;9.108;2022-07-29T03:35:03;17.78;82.63
18361;SHT31;9308;48.550;9.108;2022-07-29T03:37:29;17.92;81.66
18361;SHT31;9308;48.550;9.108;2022-07-29T03:39:57;17.89;81.66
18361;SHT31;9308;48.550;9.108;2022-07-29T03:42:28;17.90;81.99
18361;SHT31;9308;48.550;9.108;2022-07-29T03:44:56;17.90;81.37
18361;SHT31;9308;48.550;9.108;2022-07-29T03:47:23;17.81;81.67
18361;SHT31;9308;48.550;9.108;2022-07-29T03:49:52;17.79;81.79
18361;SHT31;9308;48.550;9.108;2022-07-29T03:52:19;17.61;82.58
18361;SHT31;9308;48.550;9.108;2022-07-29T03:54:45;17.54;82.84
18361;SHT31;9308;48.550;9.108;2022-07-29T03:57:11;17.65;82.80
18361;SHT31;9308;48.550;9.108;2022-07-29T03:59:38;17.68;82.54
18361;SHT31;9308;48.550;9.108;2022-07-29T04:02:05;17.67;82.73
18361;SHT31;9308;48.550;9.108;2022-07-29T04:04:34;17.61;82.46
18361;SHT31;9308;48.550;9.108;2022-07-29T04:07:00;17.58;82.60
18361;SHT31;9308;48.550;9.108;2022-07-29T04:09:25;17.67;82.46
18361;SHT31;9308;48.550;9.108;2022-07-29T04:11:51;17.71;82.21
18361;SHT31;9308;48.550;9.108;2022-07-29T04:14:17;17.69;81.58
18361;SHT31;9308;48.550;9.108;2022-07-29T04:16:43;17.64;81.61
18361;SHT31;9308;48.550;9.108;2022-07-29T04:19:08;17.52;82.20
18361;SHT31;9308;48.550;9.108;2022-07-29T04:21:40;17.49;82.32
18361;SHT31;9308;48.550;9.108;2022-07-29T04:24:07;17.71;81.36
18361;SHT31;9308;48.550;9.108;2022-07-29T04:26:33;17.68;81.45
18361;SHT31;9308;48.550;9.108;2022-07-29T04:28:59;17.65;81.51
18361;SHT31;9308;48.550;9.108;2022-07-29T04:31:24;17.74;81.43
18361;SHT31;9308;48.550;9.108;2022-07-29T04:33:49;17.71;81.34
18361;SHT31;9308;48.550;9.108;2022-07-29T04:36:15;17.64;82.21
18361;SHT31;9308;48.550;9.108;2022-07-29T04:38:40;17.83;81.39
18361;SHT31;9308;48.550;9.108;2022-07-29T04:41:06;17.79;81.13
18361;SHT31;9308;48.550;9.108;2022-07-29T04:43:33;17.85;81.57
18361;SHT31;9308;48.550;9.108;2022-07-29T04:45:58;17.89;81.37
18361;SHT31;9308;48.550;9.108;2022-07-29T04:48:24;17.96;81.37
18361;SHT31;9308;48.550;9.108;2022-07-29T04:50:50;17.96;81.37
18361;SHT31;9308;48.550;9.108;2022-07-29T04:53:15;17.99;81.65
18361;SHT31;9308;48.550;9.108;2022-07-29T04:55:41;18.21;80.99
18361;SHT31;9308;48.550;9.108;2022-07-29T04:58:06;18.35;80.36
18361;SHT31;9308;48.550;9.108;2022-07-29T05:00:33;18.34;81.13
18361;SHT31;9308;48.550;9.108;2022-07-29T05:02:58;18.37;81.23
18361;SHT31;9308;48.550;9.108;2022-07-29T05:05:24;18.47;81.60
18361;SHT31;9308;48.550;9.108;2022-07-29T05:07:49;18.54;81.40
18361;SHT31;9308;48.550;9.108;2022-07-29T05:10:15;18.41;81.35
18361;SHT31;9308;48.550;9.108;2022-07-29T05:12:40;18.43;81.76
18361;SHT31;9308;48.550;9.108;2022-07-29T05:15:06;18.57;81.70
18361;SHT31;9308;48.550;9.108;2022-07-29T05:17:31;18.72;81.32
18361;SHT31;9308;48.550;9.108;2022-07-29T05:20:00;18.92;81.17
18361;SHT31;9308;48.550;9.108;2022-07-29T05:22:25;19.07;81.68
18361;SHT31;9308;48.550;9.108;2022-07-29T05:24:50;19.26;79.98
18361;SHT31;9308;48.550;9.108;2022-07-29T05:27:16;19.30;80.37
18361;SHT31;9308;48.550;9.108;2022-07-29T05:29:41;19.41;79.83
18361;SHT31;9308;48.550;9.108;2022-07-29T05:32:07;19.40;80.14
18361;SHT31;9308;48.550;9.108;2022-07-29T05:34:32;19.47;80.70
18361;SHT31;9308;48.550;9.108;2022-07-29T05:36:58;19.54;79.93
18361;SHT31;9308;48.550;9.108;2022-07-29T05:39:24;19.81;79.81
18361;SHT31;9308;48.550;9.108;2022-07-29T05:41:49;19.93;79.47
18361;SHT31;9308;48.550;9.108;2022-07-29T05:44:15;20.05;78.06
18361;SHT31;9308;48.550;9.108;2022-07-29T05:46:40;20.06;78.32
18361;SHT31;9308;48.550;9.108;2022-07-29T05:49:06;20.13;78.26
18361;SHT31;9308;48.550;9.108;2022-07-29T05:51:35;20.03;79.39
18361;SHT31;9308;48.550;9.108;2022-07-29T05:54:01;20.20;77.71
18361;SHT31;9308;48.550;9.108;2022-07-29T05:56:27;20.30;76.71
18361;SHT31;9308;48.550;9.108;2022-07-29T05:58:53;20.01;76.83
18361;SHT31;9308;48.550;9.108;2022-07-29T06:01:18;20.08;76.27
18361;SHT31;9308;48.550;9.108;2022-07-29T06:03:44;20.06;76.13
18361;SHT31;9308;48.550;9.108;2022-07-29T06:06:10;20.10;77.81
18361;SHT31;9308;48.550;9.108;2022-07-29T06:08:36;20.01;79.27
18361;SHT31;9308;48.550;9.108;2022-07-29T06:11:03;20.21;77.24
18361;SHT31;9308;48.550;9.108;2022-07-29T06:13:29;20.41;77.90
18361;SHT31;9308;48.550;9.108;2022-07-29T06:15:54;20.33;78.97
18361;SHT31;9308;48.550;9.108;2022-07-29T06:18:20;20.43;78.89
18361;SHT31;9308;48.550;9.108;2022-07-29T06:20:49;20.45;79.53
18361;SHT31;9308;48.550;9.108;2022-07-29T06:23:15;20.67;79.07
18361;SHT31;9308;48.550;9.108;2022-07-29T06:25:40;20.78;78.39
18361;SHT31;9308;48.550;9.108;2022-07-29T06:28:06;20.91;77.35
18361;SHT31;9308;48.550;9.108;2022-07-29T06:30:32;21.03;76.63
18361;SHT31;9308;48.550;9.108;2022-07-29T06:32:57;21.27;76.99
18361;SHT31;9308;48.550;9.108;2022-07-29T06:35:23;21.29;77.32
18361;SHT31;9308;48.550;9.108;2022-07-29T06:37:49;21.51;76.26
18361;SHT31;9308;48.550;9.108;2022-07-29T06:40:15;21.77;75.21
18361;SHT31;9308;48.550;9.108;2022-07-29T06:42:58;21.94;74.04
18361;SHT31;9308;48.550;9.108;2022-07-29T06:45:24;22.04;73.64
18361;SHT31;9308;48.550;9.108;2022-07-29T06:47:49;22.01;72.87
18361;SHT31;9308;48.550;9.108;2022-07-29T06:50:15;22.16;73.36
18361;SHT31;9308;48.550;9.108;2022-07-29T06:52:42;22.16;72.61
18361;SHT31;9308;48.550;9.108;2022-07-29T06:55:08;22.13;75.90
18361;SHT31;9308;48.550;9.108;2022-07-29T06:57:33;22.26;74.91
18361;SHT31;9308;48.550;9.108;2022-07-29T06:59:59;22.41;74.50
18361;SHT31;9308;48.550;9.108;2022-07-29T07:02:24;22.60;72.29
18361;SHT31;9308;48.550;9.108;2022-07-29T07:04:50;22.50;73.17
18361;SHT31;9308;48.550;9.108;2022-07-29T07:07:16;22.54;73.50
18361;SHT31;9308;48.550;9.108;2022-07-29T07:09:41;22.43;72.26
18361;SHT31;9308;48.550;9.108;2022-07-29T07:12:07;22.43;73.29
18361;SHT31;9308;48.550;9.108;2022-07-29T07:14:33;22.35;73.20
18361;SHT31;9308;48.550;9.108;2022-07-29T07:16:58;22.40;74.34
18361;SHT31;9308;48.550;9.108;2022-07-29T07:19:26;22.37;73.96
18361;SHT31;9308;48.550;9.108;2022-07-29T07:21:54;22.47;73.43
18361;SHT31;9308;48.550;9.108;2022-07-29T07:24:20;22.44;71.47
18361;SHT31;9308;48.550;9.108;2022-07-29T07:26:46;22.68;71.93
18361;SHT31;9308;48.550;9.108;2022-07-29T07:29:11;22.64;73.42
18361;SHT31;9308;48.550;9.108;2022-07-29T07:31:37;22.80;74.14
18361;SHT31;9308;48.550;9.108;2022-07-29T07:34:03;22.57;73.47
18361;SHT31;9308;48.550;9.108;2022-07-29T07:36:28;22.96;71.04
18361;SHT31;9308;48.550;9.108;2022-07-29T07:38:54;22.73;72.85
18361;SHT31;9308;48.550;9.108;2022-07-29T07:41:20;22.71;72.23
18361;SHT31;9308;48.550;9.108;2022-07-29T07:43:45;22.75;71.23
18361;SHT31;9308;48.550;9.108;2022-07-29T07:46:11;22.77;71.61
18361;SHT31;9308;48.550;9.108;2022-07-29T07:48:36;22.98;70.90
18361;SHT31;9308;48.550;9.108;2022-07-29T07:51:02;23.19;70.36
18361;SHT31;9308;48.550;9.108;2022-07-29T07:53:28;23.16;69.51
18361;SHT31;9308;48.550;9.108;2022-07-29T07:55:55;23.49;68.55
18361;SHT31;9308;48.550;9.108;2022-07-29T07:58:20;23.51;70.58
18361;SHT31;9308;48.550;9.108;2022-07-29T08:00:46;23.98;68.37
18361;SHT31;9308;48.550;9.108;2022-07-29T08:03:12;24.19;67.76
18361;SHT31;9308;48.550;9.108;2022-07-29T08:05:39;24.05;68.87
18361;SHT31;9308;48.550;9.108;2022-07-29T08:08:05;23.94;67.41
18361;SHT31;9308;48.550;9.108;2022-07-29T08:10:31;23.85;69.22
18361;SHT31;9308;48.550;9.108;2022-07-29T08:13:15;23.81;70.59
18361;SHT31;9308;48.550;9.108;2022-07-29T08:15:41;24.22;68.81
18361;SHT31;9308;48.550;9.108;2022-07-29T08:18:08;24.43;66.50
18361;SHT31;9308;48.550;9.108;2022-07-29T08:20:34;24.55;69.03
18361;SHT31;9308;48.550;9.108;2022-07-29T08:23:01;24.55;68.09
18361;SHT31;9308;48.550;9.108;2022-07-29T08:25:27;24.56;66.37
18361;SHT31;9308;48.550;9.108;2022-07-29T08:27:52;24.45;66.27
18361;SHT31;9308;48.550;9.108;2022-07-29T08:30:18;24.55;65.85
18361;SHT31;9308;48.550;9.108;2022-07-29T08:32:43;24.70;65.68
18361;SHT31;9308;48.550;9.108;2022-07-29T08:35:08;24.88;66.13
18361;SHT31;9308;48.550;9.108;2022-07-29T08:37:34;24.88;63.04
18361;SHT31;9308;48.550;9.108;2022-07-29T08:39:59;25.19;63.15
18361;SHT31;9308;48.550;9.108;2022-07-29T08:42:25;25.33;61.63
18361;SHT31;9308;48.550;9.108;2022-07-29T08:44:50;25.32;63.19
18361;SHT31;9308;48.550;9.108;2022-07-29T08:47:16;25.36;61.47
18361;SHT31;9308;48.550;9.108;2022-07-29T08:49:42;25.50;63.99
18361;SHT31;9308;48.550;9.108;2022-07-29T08:52:10;25.74;62.63
18361;SHT31;9308;48.550;9.108;2022-07-29T08:54:38;26.04;61.48
18361;SHT31;9308;48.550;9.108;2022-07-29T08:57:04;26.21;61.15
18361;SHT31;9308;48.550;9.108;2022-07-29T08:59:31;26.07;59.75
18361;SHT31;9308;48.550;9.108;2022-07-29T09:01:58;26.15;61.87
18361;SHT31;9308;48.550;9.108;2022-07-29T09:04:29;26.66;57.91
18361;SHT31;9308;48.550;9.108;2022-07-29T09:06:57;26.82;57.81
18361;SHT31;9308;48.550;9.108;2022-07-29T09:09:25;26.93;56.08
18361;SHT31;9308;48.550;9.108;2022-07-29T09:11:51;26.91;57.22
18361;SHT31;9308;48.550;9.108;2022-07-29T09:14:18;27.04;58.73
18361;SHT31;9308;48.550;9.108;2022-07-29T09:21:49;28.35;53.01
18361;SHT31;9308;48.550;9.108;2022-07-29T09:24:26;28.82;50.87
18361;SHT31;9308;48.550;9.108;2022-07-29T09:26:52;28.86;50.77
18361;SHT31;9308;48.550;9.108;2022-07-29T09:29:22;28.83;52.33
18361;SHT31;9308;48.550;9.108;2022-07-29T09:31:50;28.79;55.52
18361;SHT31;9308;48.550;9.108;2022-07-29T09:34:23;28.62;51.20
18361;SHT31;9308;48.550;9.108;2022-07-29T09:36:50;28.49;53.11
18361;SHT31;9308;48.550;9.108;2022-07-29T09:39:27;28.35;51.52
18361;SHT31;9308;48.550;9.108;2022-07-29T09:41:55;28.34;53.37
18361;SHT31;9308;48.550;9.108;2022-07-29T09:44:22;28.35;52.52
18361;SHT31;9308;48.550;9.108;2022-07-29T09:47:01;28.32;52.90
18361;SHT31;9308;48.550;9.108;2022-07-29T09:49:33;28.51;51.42
18361;SHT31;9308;48.550;9.108;2022-07-29T09:52:05;28.21;51.57
18361;SHT31;9308;48.550;9.108;2022-07-29T09:54:30;28.40;55.35
18361;SHT31;9308;48.550;9.108;2022-07-29T09:57:07;28.40;54.89
18361;SHT31;9308;48.550;9.108;2022-07-29T09:59:34;28.78;50.65
18361;SHT31;9308;48.550;9.108;2022-07-29T10:01:59;28.64;49.45
18361;SHT31;9308;48.550;9.108;2022-07-29T10:04:37;28.75;49.13
18361;SHT31;9308;48.550;9.108;2022-07-29T10:07:03;28.92;51.93
18361;SHT31;9308;48.550;9.108;2022-07-29T10:09:30;29.13;51.35
18361;SHT31;9308;48.550;9.108;2022-07-29T10:12:12;29.13;50.45
18361;SHT31;9308;48.550;9.108;2022-07-29T10:14:40;29.47;49.98
18361;SHT31;9308;48.550;9.108;2022-07-29T10:17:07;29.84;50.62
18361;SHT31;9308;48.550;9.108;2022-07-29T10:19:34;29.90;51.58
18361;SHT31;9308;48.550;9.108;2022-07-29T10:22:02;29.84;49.04
18361;SHT31;9308;48.550;9.108;2022-07-29T10:24:29;30.54;47.85
18361;SHT31;9308;48.550;9.108;2022-07-29T10:26:56;31.05;47.81
18361;SHT31;9308;48.550;9.108;2022-07-29T10:29:23;31.47;48.71
18361;SHT31;9308;48.550;9.108;2022-07-29T10:43:16;30.96;43.75
18361;SHT31;9308;48.550;9.108;2022-07-29T10:45:45;30.93;41.27
18361;SHT31;9308;48.550;9.108;2022-07-29T10:48:12;30.67;40.98
18361;SHT31;9308;48.550;9.108;2022-07-29T10:50:55;31.15;42.28
18361;SHT31;9308;48.550;9.108;2022-07-29T10:53:24;31.57;42.56
18361;SHT31;9308;48.550;9.108;2022-07-29T10:56:23;31.18;46.97
18361;SHT31;9308;48.550;9.108;2022-07-29T11:01:45;30.86;40.60
18361;SHT31;9308;48.550;9.108;2022-07-29T11:04:10;30.84;42.07
18361;SHT31;9308;48.550;9.108;2022-07-29T11:09:23;30.96;41.96
18361;SHT31;9308;48.550;9.108;2022-07-29T11:11:49;30.48;43.64
18361;SHT31;9308;48.550;9.108;2022-07-29T11:14:14;29.90;42.82
18361;SHT31;9308;48.550;9.108;2022-07-29T11:17:01;29.98;43.60
18361;SHT31;9308;48.550;9.108;2022-07-29T11:19:28;28.04;48.42
18361;SHT31;9308;48.550;9.108;2022-07-29T11:21:53;27.48;48.74
18361;SHT31;9308;48.550;9.108;2022-07-29T11:24:27;27.31;48.59
18361;SHT31;9308;48.550;9.108;2022-07-29T11:27:13;27.55;48.57
18361;SHT31;9308;48.550;9.108;2022-07-29T11:29:47;28.03;46.30
18361;SHT31;9308;48.550;9.108;2022-07-29T11:32:14;27.80;43.58
18361;SHT31;9308;48.550;9.108;2022-07-29T11:34:41;27.82;42.21
18361;SHT31;9308;48.550;9.108;2022-07-29T11:45:01;28.64;44.46
18361;SHT31;9308;48.550;9.108;2022-07-29T11:47:31;28.89;45.81
18361;SHT31;9308;48.550;9.108;2022-07-29T11:49:58;28.97;45.16
18361;SHT31;9308;48.550;9.108;2022-07-29T11:52:33;28.99;45.73
18361;SHT31;9308;48.550;9.108;2022-07-29T11:55:02;29.79;42.44
18361;SHT31;9308;48.550;9.108;2022-07-29T11:57:28;29.78;42.31
18361;SHT31;9308;48.550;9.108;2022-07-29T11:59:55;30.24;41.85
18361;SHT31;9308;48.550;9.108;2022-07-29T12:02:20;30.46;43.52
18361;SHT31;9308;48.550;9.108;2022-07-29T12:04:56;30.67;43.64
18361;SHT31;9308;48.550;9.108;2022-07-29T12:07:29;30.43;45.15
18361;SHT31;9308;48.550;9.108;2022-07-29T12:09:54;29.93;44.41
18361;SHT31;9308;48.550;9.108;2022-07-29T12:12:21;29.65;45.79
18361;SHT31;9308;48.550;9.108;2022-07-29T12:14:46;29.27;46.39
18361;SHT31;9308;48.550;9.108;2022-07-29T12:17:32;29.29;46.12
18361;SHT31;9308;48.550;9.108;2022-07-29T12:22:28;29.14;46.42
18361;SHT31;9308;48.550;9.108;2022-07-29T12:24:54;29.14;47.90
18361;SHT31;9308;48.550;9.108;2022-07-29T12:27:20;29.47;46.05
18361;SHT31;9308;48.550;9.108;2022-07-29T12:30:01;29.02;47.20
18361;SHT31;9308;48.550;9.108;2022-07-29T12:32:49;29.99;45.64
18361;SHT31;9308;48.550;9.108;2022-07-29T12:35:19;30.93;44.35
18361;SHT31;9308;48.550;9.108;2022-07-29T12:37:46;30.89;43.80
18361;SHT31;9308;48.550;9.108;2022-07-29T12:40:17;31.41;43.03
18361;SHT31;9308;48.550;9.108;2022-07-29T12:45:31;31.13;43.65
18361;SHT31;9308;48.550;9.108;2022-07-29T12:47:56;30.57;45.88
18361;SHT31;9308;48.550;9.108;2022-07-29T12:50:22;30.48;45.61
18361;SHT31;9308;48.550;9.108;2022-07-29T12:52:47;29.90;46.30
18361;SHT31;9308;48.550;9.108;2022-07-29T12:55:13;29.66;47.87
18361;SHT31;9308;48.550;9.108;2022-07-29T13:00:13;28.90;50.01
18361;SHT31;9308;48.550;9.108;2022-07-29T13:02:40;29.27;50.74
18361;SHT31;9308;48.550;9.108;2022-07-29T13:05:07;28.95;50.61
18361;SHT31;9308;48.550;9.108;2022-07-29T13:07:37;29.02;50.25
18361;SHT31;9308;48.550;9.108;2022-07-29T13:10:19;28.34;49.91
18361;SHT31;9308;48.550;9.108;2022-07-29T13:13:06;27.06;53.77
18361;SHT31;9308;48.550;9.108;2022-07-29T13:15:32;26.59;53.57
18361;SHT31;9308;48.550;9.108;2022-07-29T13:17:58;26.29;53.67
18361;SHT31;9308;48.550;9.108;2022-07-29T13:20:27;25.80;54.76
18361;SHT31;9308;48.550;9.108;2022-07-29T13:22:55;25.53;57.68
18361;SHT31;9308;48.550;9.108;2022-07-29T13:25:27;25.12;67.02
18361;SHT31;9308;48.550;9.108;2022-07-29T13:27:53;24.64;65.09
18361;SHT31;9308;48.550;9.108;2022-07-29T13:30:20;24.83;67.55
18361;SHT31;9308;48.550;9.108;2022-07-29T13:32:45;24.90;66.12
18361;SHT31;9308;48.550;9.108;2022-07-29T13:35:12;24.57;65.19
18361;SHT31;9308;48.550;9.108;2022-07-29T13:37:38;25.26;67.50
18361;SHT31;9308;48.550;9.108;2022-07-29T13:40:05;24.71;67.90
18361;SHT31;9308;48.550;9.108;2022-07-29T13:42:50;24.98;67.13
18361;SHT31;9308;48.550;9.108;2022-07-29T13:45:15;25.01;66.71
18361;SHT31;9308;48.550;9.108;2022-07-29T13:47:41;24.36;66.49
18361;SHT31;9308;48.550;9.108;2022-07-29T13:50:07;24.15;68.27
18361;SHT31;9308;48.550;9.108;2022-07-29T13:52:35;23.93;67.52
18361;SHT31;9308;48.550;9.108;2022-07-29T13:55:01;24.19;68.27
18361;SHT31;9308;48.550;9.108;2022-07-29T13:57:27;24.16;65.75
18361;SHT31;9308;48.550;9.108;2022-07-29T13:59:52;24.39;67.65
18361;SHT31;9308;48.550;9.108;2022-07-29T14:02:18;24.33;69.58
18361;SHT31;9308;48.550;9.108;2022-07-29T14:04:44;24.57;68.79
18361;SHT31;9308;48.550;9.108;2022-07-29T14:07:09;24.86;68.89
18361;SHT31;9308;48.550;9.108;2022-07-29T14:09:35;24.98;66.04
18361;SHT31;9308;48.550;9.108;2022-07-29T14:12:01;25.32;67.09
18361;SHT31;9308;48.550;9.108;2022-07-29T14:14:28;25.12;64.30
18361;SHT31;9308;48.550;9.108;2022-07-29T14:16:54;25.55;64.51
18361;SHT31;9308;48.550;9.108;2022-07-29T14:19:20;25.67;63.81
18361;SHT31;9308;48.550;9.108;2022-07-29T14:21:45;25.62;64.48
18361;SHT31;9308;48.550;9.108;2022-07-29T14:24:11;25.52;63.46
18361;SHT31;9308;48.550;9.108;2022-07-29T14:26:36;25.50;63.74
18361;SHT31;9308;48.550;9.108;2022-07-29T14:29:02;25.46;65.11
18361;SHT31;9308;48.550;9.108;2022-07-29T14:31:27;25.70;64.09
18361;SHT31;9308;48.550;9.108;2022-07-29T14:33:53;25.59;62.77
18361;SHT31;9308;48.550;9.108;2022-07-29T14:36:18;25.41;64.35
18361;SHT31;9308;48.550;9.108;2022-07-29T14:38:43;25.26;64.05
18361;SHT31;9308;48.550;9.108;2022-07-29T14:41:09;25.71;62.67
18361;SHT31;9308;48.550;9.108;2022-07-29T14:43:34;25.56;63.76
18361;SHT31;9308;48.550;9.108;2022-07-29T14:46:00;25.74;61.22
18361;SHT31;9308;48.550;9.108;2022-07-29T14:48:26;25.62;60.50
18361;SHT31;9308;48.550;9.108;2022-07-29T14:50:51;25.41;61.47
18361;SHT31;9308;48.550;9.108;2022-07-29T14:53:17;25.53;58.51
18361;SHT31;9308;48.550;9.108;2022-07-29T14:55:43;25.43;63.58
18361;SHT31;9308;48.550;9.108;2022-07-29T14:58:09;25.24;63.06
18361;SHT31;9308;48.550;9.108;2022-07-29T15:00:34;25.22;60.27
18361;SHT31;9308;48.550;9.108;2022-07-29T15:03:02;25.19;58.66
18361;SHT31;9308;48.550;9.108;2022-07-29T15:05:28;25.14;61.68
18361;SHT31;9308;48.550;9.108;2022-07-29T15:07:54;25.19;62.87
18361;SHT31;9308;48.550;9.108;2022-07-29T15:10:19;25.38;62.78
18361;SHT31;9308;48.550;9.108;2022-07-29T15:12:45;25.59;62.54
18361;SHT31;9308;48.550;9.108;2022-07-29T15:15:10;25.69;59.16
18361;SHT31;9308;48.550;9.108;2022-07-29T15:17:35;25.55;60.06
18361;SHT31;9308;48.550;9.108;2022-07-29T15:20:02;25.46;61.53
18361;SHT31;9308;48.550;9.108;2022-07-29T15:22:28;25.66;62.37
18361;SHT31;9308;48.550;9.108;2022-07-29T15:24:53;25.46;63.88
18361;SHT31;9308;48.550;9.108;2022-07-29T15:27:18;25.46;64.03
18361;SHT31;9308;48.550;9.108;2022-07-29T15:29:44;25.62;65.97
18361;SHT31;9308;48.550;9.108;2022-07-29T15:32:10;25.70;62.10
18361;SHT31;9308;48.550;9.108;2022-07-29T15:34:36;25.70;60.28
18361;SHT31;9308;48.550;9.108;2022-07-29T15:37:02;25.65;62.76
18361;SHT31;9308;48.550;9.108;2022-07-29T15:39:28;25.50;63.54
18361;SHT31;9308;48.550;9.108;2022-07-29T15:41:53;25.50;63.18
18361;SHT31;9308;48.550;9.108;2022-07-29T15:44:19;25.38;61.01
18361;SHT31;9308;48.550;9.108;2022-07-29T15:46:45;25.35;63.40
18361;SHT31;9308;48.550;9.108;2022-07-29T15:49:36;25.43;59.79
18361;SHT31;9308;48.550;9.108;2022-07-29T15:52:07;25.42;60.36
18361;SHT31;9308;48.550;9.108;2022-07-29T15:54:34;25.49;60.96
18361;SHT31;9308;48.550;9.108;2022-07-29T15:57:00;25.76;62.30
18361;SHT31;9308;48.550;9.108;2022-07-29T15:59:26;25.71;63.04
18361;SHT31;9308;48.550;9.108;2022-07-29T16:01:52;25.94;63.00
18361;SHT31;9308;48.550;9.108;2022-07-29T16:04:17;26.00;63.54
18361;SHT31;9308;48.550;9.108;2022-07-29T16:06:43;26.18;62.88
18361;SHT31;9308;48.550;9.108;2022-07-29T16:09:09;26.04;64.61
18361;SHT31;9308;48.550;9.108;2022-07-29T16:11:35;25.98;63.36
18361;SHT31;9308;48.550;9.108;2022-07-29T16:14:00;26.27;61.16
18361;SHT31;9308;48.550;9.108;2022-07-29T16:16:26;26.12;63.73
18361;SHT31;9308;48.550;9.108;2022-07-29T16:18:52;26.24;63.48
18361;SHT31;9308;48.550;9.108;2022-07-29T16:21:17;26.36;61.23
18361;SHT31;9308;48.550;9.108;2022-07-29T16:23:43;26.39;64.25
18361;SHT31;9308;48.550;9.108;2022-07-29T16:26:08;26.45;61.46
18361;SHT31;9308;48.550;9.108;2022-07-29T16:28:34;26.22;64.28